Farmersburg, Indiana
Current Conditions -  °F | °C
As of 12:53 PM on Monday 24 Nov 2014 (Local Time) from KHUF Reporting Station
Overcast Overcast  
Wind Chill: 30°   Ceiling: 2200
Heat Index: 39°   Visibility: 10mi
Dew Point: 31°   Wind: 17mph
Humidity: 73%   Direction: 250°WSW
Pressure: 29.61"   Gusts: 24mph
Location:  39.25°N, 87.38°W
Report Text: KHUF 241753Z 25015G21KT 10SM OVC022 04/M01 A2961 RMK AO2 PK WND 24028/1657 SLP027 60000 T00391006 10133 20033 51041 $
Loading
Personal Weather Stations






























Interactive Weather Map New forecast layout! Learn more

10-Day Weather Forecast

Advertisements
Track Severe Weather on mobile